sensor_id;sensor_type;location;lat;lon;timestamp;temperature;humidity
5631;DHT22;2837;50.990;7.124;2022-09-01T05:00:46;19.30;99.90
5631;DHT22;2837;50.990;7.124;2022-09-01T05:03:13;19.40;99.90
5631;DHT22;2837;50.990;7.124;2022-09-01T05:05:43;19.30;99.90
5631;DHT22;2837;50.990;7.124;2022-09-01T05:08:12;19.30;99.90
5631;DHT22;2837;50.990;7.124;2022-09-01T05:10:44;19.30;99.90
5631;DHT22;2837;50.990;7.124;2022-09-01T05:13:11;19.30;99.90
5631;DHT22;2837;50.990;7.124;2022-09-01T05:15:41;19.30;99.90
5631;DHT22;2837;50.990;7.124;2022-09-01T05:18:14;19.30;99.90
5631;DHT22;2837;50.990;7.124;2022-09-01T05:20:41;19.30;99.90
5631;DHT22;2837;50.990;7.124;2022-09-01T05:23:09;19.30;99.90
5631;DHT22;2837;50.990;7.124;2022-09-01T05:25:41;19.20;99.90
5631;DHT22;2837;50.990;7.124;2022-09-01T05:28:09;19.20;99.90
5631;DHT22;2837;50.990;7.124;2022-09-01T05:30:38;19.30;99.90
5631;DHT22;2837;50.990;7.124;2022-09-01T05:33:04;19.30;99.90
5631;DHT22;2837;50.990;7.124;2022-09-01T05:35:36;19.30;99.90
5631;DHT22;2837;50.990;7.124;2022-09-01T05:38:03;19.30;99.90
5631;DHT22;2837;50.990;7.124;2022-09-01T05:40:29;19.30;99.90
5631;DHT22;2837;50.990;7.124;2022-09-01T05:42:54;19.30;99.90
5631;DHT22;2837;50.990;7.124;2022-09-01T05:45:20;19.30;99.90
5631;DHT22;2837;50.990;7.124;2022-09-01T05:47:51;19.30;99.90
5631;DHT22;2837;50.990;7.124;2022-09-01T05:50:19;19.30;99.90
5631;DHT22;2837;50.990;7.124;2022-09-01T05:52:45;19.30;99.90
5631;DHT22;2837;50.990;7.124;2022-09-01T05:55:12;19.30;99.90
5631;DHT22;2837;50.990;7.124;2022-09-01T05:57:39;19.30;99.90
5631;DHT22;2837;50.990;7.124;2022-09-01T06:00:07;19.20;99.90
5631;DHT22;2837;50.990;7.124;2022-09-01T06:02:39;19.20;99.90
5631;DHT22;2837;50.990;7.124;2022-09-01T06:05:07;19.20;99.90
5631;DHT22;2837;50.990;7.124;2022-09-01T06:07:33;19.20;99.90
5631;DHT22;2837;50.990;7.124;2022-09-01T06:10:00;19.20;99.90
5631;DHT22;2837;50.990;7.124;2022-09-01T06:12:27;19.20;99.90
5631;DHT22;2837;50.990;7.124;2022-09-01T06:14:54;19.20;99.90
5631;DHT22;2837;50.990;7.124;2022-09-01T06:17:22;19.20;99.90
5631;DHT22;2837;50.990;7.124;2022-09-01T06:19:55;19.10;99.90
5631;DHT22;2837;50.990;7.124;2022-09-01T06:22:21;19.20;99.90
5631;DHT22;2837;50.990;7.124;2022-09-01T06:24:49;19.20;99.90
5631;DHT22;2837;50.990;7.124;2022-09-01T06:27:17;19.20;99.90
5631;DHT22;2837;50.990;7.124;2022-09-01T06:29:44;19.30;99.90
5631;DHT22;2837;50.990;7.124;2022-09-01T06:32:12;19.30;99.90
5631;DHT22;2837;50.990;7.124;2022-09-01T06:34:39;19.30;99.90
5631;DHT22;2837;50.990;7.124;2022-09-01T06:37:06;19.30;99.90
5631;DHT22;2837;50.990;7.124;2022-09-01T06:39:32;19.30;99.90
5631;DHT22;2837;50.990;7.124;2022-09-01T06:41:58;19.30;99.90
5631;DHT22;2837;50.990;7.124;2022-09-01T06:44:27;19.30;99.90
5631;DHT22;2837;50.990;7.124;2022-09-01T06:46:55;19.30;99.90
5631;DHT22;2837;50.990;7.124;2022-09-01T06:49:21;19.40;99.90
5631;DHT22;2837;50.990;7.124;2022-09-01T06:51:58;19.40;99.90
5631;DHT22;2837;50.990;7.124;2022-09-01T06:54:24;19.40;99.90
5631;DHT22;2837;50.990;7.124;2022-09-01T06:56:50;19.40;99.90
5631;DHT22;2837;50.990;7.124;2022-09-01T06:59:17;19.50;99.90
5631;DHT22;2837;50.990;7.124;2022-09-01T07:01:43;19.50;99.90
5631;DHT22;2837;50.990;7.124;2022-09-01T07:04:09;19.60;99.90
5631;DHT22;2837;50.990;7.124;2022-09-01T07:06:35;19.50;99.90
5631;DHT22;2837;50.990;7.124;2022-09-01T07:09:01;19.60;99.90
5631;DHT22;2837;50.990;7.124;2022-09-01T07:11:31;19.60;99.90
5631;DHT22;2837;50.990;7.124;2022-09-01T07:14:00;19.60;99.90
5631;DHT22;2837;50.990;7.124;2022-09-01T07:16:27;19.70;99.90
5631;DHT22;2837;50.990;7.124;2022-09-01T07:18:56;19.70;99.90
5631;DHT22;2837;50.990;7.124;2022-09-01T07:21:25;19.70;99.90
5631;DHT22;2837;50.990;7.124;2022-09-01T07:23:51;19.70;99.90
5631;DHT22;2837;50.990;7.124;2022-09-01T07:26:18;19.80;99.90
5631;DHT22;2837;50.990;7.124;2022-09-01T07:28:48;19.80;99.90
5631;DHT22;2837;50.990;7.124;2022-09-01T07:33:49;19.90;99.90
5631;DHT22;2837;50.990;7.124;2022-09-01T07:36:17;19.90;99.90
5631;DHT22;2837;50.990;7.124;2022-09-01T07:38:42;19.90;99.90
5631;DHT22;2837;50.990;7.124;2022-09-01T07:41:11;19.90;99.90
5631;DHT22;2837;50.990;7.124;2022-09-01T07:43:38;19.90;99.90
5631;DHT22;2837;50.990;7.124;2022-09-01T07:46:04;20.00;99.90
5631;DHT22;2837;50.990;7.124;2022-09-01T07:48:31;20.00;99.90
5631;DHT22;2837;50.990;7.124;2022-09-01T07:50:56;20.00;99.90
5631;DHT22;2837;50.990;7.124;2022-09-01T07:53:23;20.10;99.90
5631;DHT22;2837;50.990;7.124;2022-09-01T07:55:51;20.10;99.90
5631;DHT22;2837;50.990;7.124;2022-09-01T07:58:20;20.10;99.90
5631;DHT22;2837;50.990;7.124;2022-09-01T08:00:46;20.10;99.90
5631;DHT22;2837;50.990;7.124;2022-09-01T08:03:15;20.10;99.90
5631;DHT22;2837;50.990;7.124;2022-09-01T08:05:41;20.10;99.90
5631;DHT22;2837;50.990;7.124;2022-09-01T08:08:08;20.20;99.90
5631;DHT22;2837;50.990;7.124;2022-09-01T08:10:37;20.20;99.90
5631;DHT22;2837;50.990;7.124;2022-09-01T08:13:02;20.20;99.90
5631;DHT22;2837;50.990;7.124;2022-09-01T08:15:28;20.30;99.90
5631;DHT22;2837;50.990;7.124;2022-09-01T08:17:54;20.30;99.90
5631;DHT22;2837;50.990;7.124;2022-09-01T08:20:19;20.30;99.90
5631;DHT22;2837;50.990;7.124;2022-09-01T08:22:45;20.30;99.90
5631;DHT22;2837;50.990;7.124;2022-09-01T08:25:11;20.30;99.90
5631;DHT22;2837;50.990;7.124;2022-09-01T08:27:37;20.30;99.90
5631;DHT22;2837;50.990;7.124;2022-09-01T08:30:08;20.40;99.90
5631;DHT22;2837;50.990;7.124;2022-09-01T08:32:35;20.40;99.90
5631;DHT22;2837;50.990;7.124;2022-09-01T08:35:01;20.40;99.90
5631;DHT22;2837;50.990;7.124;2022-09-01T08:37:29;20.50;99.90
5631;DHT22;2837;50.990;7.124;2022-09-01T08:39:55;20.50;98.80
5631;DHT22;2837;50.990;7.124;2022-09-01T08:42:48;20.50;97.50
5631;DHT22;2837;50.990;7.124;2022-09-01T08:47:47;20.50;94.50
5631;DHT22;2837;50.990;7.124;2022-09-01T08:50:13;20.50;95.90
5631;DHT22;2837;50.990;7.124;2022-09-01T08:52:48;20.50;97.30
5631;DHT22;2837;50.990;7.124;2022-09-01T08:55:20;20.60;94.20
5631;DHT22;2837;50.990;7.124;2022-09-01T08:57:50;20.60;90.80
5631;DHT22;2837;50.990;7.124;2022-09-01T09:00:22;20.60;85.70
5631;DHT22;2837;50.990;7.124;2022-09-01T09:08:50;20.70;88.00
5631;DHT22;2837;50.990;7.124;2022-09-01T09:14:17;20.70;90.20
5631;DHT22;2837;50.990;7.124;2022-09-01T09:16:49;20.80;88.00
5631;DHT22;2837;50.990;7.124;2022-09-01T09:19:21;20.80;81.70
5631;DHT22;2837;50.990;7.124;2022-09-01T09:21:49;20.80;77.70
5631;DHT22;2837;50.990;7.124;2022-09-01T09:27:26;20.90;88.80
5631;DHT22;2837;50.990;7.124;2022-09-01T09:29:55;20.90;90.40
5631;DHT22;2837;50.990;7.124;2022-09-01T09:32:23;20.90;92.50
5631;DHT22;2837;50.990;7.124;2022-09-01T09:34:50;20.90;93.90
5631;DHT22;2837;50.990;7.124;2022-09-01T09:37:26;20.90;92.20
5631;DHT22;2837;50.990;7.124;2022-09-01T09:42:38;21.00;96.50
5631;DHT22;2837;50.990;7.124;2022-09-01T09:45:08;21.00;94.60
5631;DHT22;2837;50.990;7.124;2022-09-01T09:47:40;20.90;93.90
5631;DHT22;2837;50.990;7.124;2022-09-01T09:50:27;20.90;94.10
5631;DHT22;2837;50.990;7.124;2022-09-01T09:53:25;20.90;94.80
5631;DHT22;2837;50.990;7.124;2022-09-01T09:56:19;21.00;94.40
5631;DHT22;2837;50.990;7.124;2022-09-01T09:58:47;21.00;90.80
5631;DHT22;2837;50.990;7.124;2022-09-01T10:01:28;21.00;90.70
5631;DHT22;2837;50.990;7.124;2022-09-01T10:03:59;21.00;89.40
5631;DHT22;2837;50.990;7.124;2022-09-01T10:06:43;21.00;88.40
5631;DHT22;2837;50.990;7.124;2022-09-01T10:09:33;21.10;85.70
5631;DHT22;2837;50.990;7.124;2022-09-01T10:12:00;21.10;87.60
5631;DHT22;2837;50.990;7.124;2022-09-01T10:14:32;21.10;90.20
5631;DHT22;2837;50.990;7.124;2022-09-01T10:17:27;21.10;89.60
5631;DHT22;2837;50.990;7.124;2022-09-01T10:20:06;21.20;89.40
5631;DHT22;2837;50.990;7.124;2022-09-01T10:22:35;21.20;91.10
5631;DHT22;2837;50.990;7.124;2022-09-01T10:25:03;21.20;94.50
5631;DHT22;2837;50.990;7.124;2022-09-01T10:27:37;21.30;95.70
5631;DHT22;2837;50.990;7.124;2022-09-01T10:30:11;21.30;96.50
5631;DHT22;2837;50.990;7.124;2022-09-01T10:32:45;21.30;96.70
5631;DHT22;2837;50.990;7.124;2022-09-01T10:35:39;21.40;90.80
5631;DHT22;2837;50.990;7.124;2022-09-01T10:38:09;21.40;94.60
5631;DHT22;2837;50.990;7.124;2022-09-01T10:45:48;21.40;89.20
5631;DHT22;2837;50.990;7.124;2022-09-01T10:50:57;21.40;93.50
5631;DHT22;2837;50.990;7.124;2022-09-01T10:53:43;21.40;95.60
5631;DHT22;2837;50.990;7.124;2022-09-01T10:56:39;21.40;97.20
5631;DHT22;2837;50.990;7.124;2022-09-01T11:04:07;21.40;96.50
5631;DHT22;2837;50.990;7.124;2022-09-01T11:06:55;21.40;91.20
5631;DHT22;2837;50.990;7.124;2022-09-01T11:09:24;21.40;90.90
5631;DHT22;2837;50.990;7.124;2022-09-01T11:14:51;21.40;94.30
5631;DHT22;2837;50.990;7.124;2022-09-01T11:17:26;21.50;91.60
5631;DHT22;2837;50.990;7.124;2022-09-01T11:23:03;21.60;91.80
5631;DHT22;2837;50.990;7.124;2022-09-01T11:25:49;21.60;94.30
5631;DHT22;2837;50.990;7.124;2022-09-01T11:31:05;21.60;98.40
5631;DHT22;2837;50.990;7.124;2022-09-01T11:36:36;21.80;95.90
5631;DHT22;2837;50.990;7.124;2022-09-01T11:39:31;21.80;99.90
5631;DHT22;2837;50.990;7.124;2022-09-01T11:44:45;21.90;92.90
5631;DHT22;2837;50.990;7.124;2022-09-01T11:47:25;22.00;94.20
5631;DHT22;2837;50.990;7.124;2022-09-01T11:49:57;22.00;95.60
5631;DHT22;2837;50.990;7.124;2022-09-01T11:52:26;22.00;94.20
5631;DHT22;2837;50.990;7.124;2022-09-01T11:54:52;22.00;90.60
5631;DHT22;2837;50.990;7.124;2022-09-01T11:59:53;22.10;91.10
5631;DHT22;2837;50.990;7.124;2022-09-01T12:02:20;22.10;91.10
5631;DHT22;2837;50.990;7.124;2022-09-01T12:04:47;22.10;91.30
5631;DHT22;2837;50.990;7.124;2022-09-01T12:07:29;22.10;93.40
5631;DHT22;2837;50.990;7.124;2022-09-01T12:09:57;22.10;95.70
5631;DHT22;2837;50.990;7.124;2022-09-01T12:15:07;22.20;90.80
5631;DHT22;2837;50.990;7.124;2022-09-01T12:17:34;22.20;87.40
5631;DHT22;2837;50.990;7.124;2022-09-01T12:22:44;22.20;88.80
5631;DHT22;2837;50.990;7.124;2022-09-01T12:25:22;22.20;87.70
5631;DHT22;2837;50.990;7.124;2022-09-01T12:27:49;22.20;84.40
5631;DHT22;2837;50.990;7.124;2022-09-01T12:30:16;22.30;90.00
5631;DHT22;2837;50.990;7.124;2022-09-01T12:32:42;22.30;87.70
5631;DHT22;2837;50.990;7.124;2022-09-01T12:35:23;22.30;86.80
5631;DHT22;2837;50.990;7.124;2022-09-01T12:37:49;22.30;80.90
5631;DHT22;2837;50.990;7.124;2022-09-01T12:40:34;22.30;89.80
5631;DHT22;2837;50.990;7.124;2022-09-01T12:43:00;22.40;93.10
5631;DHT22;2837;50.990;7.124;2022-09-01T12:45:45;22.40;99.40
5631;DHT22;2837;50.990;7.124;2022-09-01T12:48:44;22.40;99.90
5631;DHT22;2837;50.990;7.124;2022-09-01T12:51:24;22.40;99.90
5631;DHT22;2837;50.990;7.124;2022-09-01T12:53:55;22.50;94.40
5631;DHT22;2837;50.990;7.124;2022-09-01T12:56:30;22.50;99.90
5631;DHT22;2837;50.990;7.124;2022-09-01T12:59:09;22.60;91.60
5631;DHT22;2837;50.990;7.124;2022-09-01T13:01:37;22.50;93.10
5631;DHT22;2837;50.990;7.124;2022-09-01T13:06:36;22.40;95.50
5631;DHT22;2837;50.990;7.124;2022-09-01T13:09:02;22.40;98.40
5631;DHT22;2837;50.990;7.124;2022-09-01T13:11:27;22.30;97.50
5631;DHT22;2837;50.990;7.124;2022-09-01T13:13:53;22.30;99.90
5631;DHT22;2837;50.990;7.124;2022-09-01T13:16:18;22.30;98.20
5631;DHT22;2837;50.990;7.124;2022-09-01T13:18:44;22.30;99.90
5631;DHT22;2837;50.990;7.124;2022-09-01T13:21:11;22.30;99.90
5631;DHT22;2837;50.990;7.124;2022-09-01T13:23:37;22.30;99.90
5631;DHT22;2837;50.990;7.124;2022-09-01T13:26:03;22.30;98.70
5631;DHT22;2837;50.990;7.124;2022-09-01T13:28:29;22.30;99.90
5631;DHT22;2837;50.990;7.124;2022-09-01T13:30:57;22.50;94.60
5631;DHT22;2837;50.990;7.124;2022-09-01T13:33:24;22.60;90.90
5631;DHT22;2837;50.990;7.124;2022-09-01T13:35:50;22.70;91.20
5631;DHT22;2837;50.990;7.124;2022-09-01T13:38:16;22.60;93.30
5631;DHT22;2837;50.990;7.124;2022-09-01T13:40:43;22.60;96.30
5631;DHT22;2837;50.990;7.124;2022-09-01T13:43:10;22.60;94.10
5631;DHT22;2837;50.990;7.124;2022-09-01T13:45:36;22.60;90.40
5631;DHT22;2837;50.990;7.124;2022-09-01T13:48:02;22.60;90.30
5631;DHT22;2837;50.990;7.124;2022-09-01T13:50:28;22.50;93.00
5631;DHT22;2837;50.990;7.124;2022-09-01T13:52:55;22.50;96.90
5631;DHT22;2837;50.990;7.124;2022-09-01T13:55:25;22.40;99.90
5631;DHT22;2837;50.990;7.124;2022-09-01T13:57:51;22.30;99.90
5631;DHT22;2837;50.990;7.124;2022-09-01T14:00:20;22.30;99.90
5631;DHT22;2837;50.990;7.124;2022-09-01T14:02:50;22.30;99.90
5631;DHT22;2837;50.990;7.124;2022-09-01T14:05:32;22.30;99.90
5631;DHT22;2837;50.990;7.124;2022-09-01T14:07:58;22.30;99.90
5631;DHT22;2837;50.990;7.124;2022-09-01T14:10:25;22.20;99.90
5631;DHT22;2837;50.990;7.124;2022-09-01T14:12:52;22.20;99.90
5631;DHT22;2837;50.990;7.124;2022-09-01T14:15:18;22.20;99.90
5631;DHT22;2837;50.990;7.124;2022-09-01T14:17:48;22.20;99.10
5631;DHT22;2837;50.990;7.124;2022-09-01T14:20:20;22.20;99.90
5631;DHT22;2837;50.990;7.124;2022-09-01T14:22:47;22.20;99.90
5631;DHT22;2837;50.990;7.124;2022-09-01T14:25:13;22.30;99.90
5631;DHT22;2837;50.990;7.124;2022-09-01T14:27:40;22.30;99.90
5631;DHT22;2837;50.990;7.124;2022-09-01T14:30:09;22.30;94.50
5631;DHT22;2837;50.990;7.124;2022-09-01T14:32:35;22.30;98.70
5631;DHT22;2837;50.990;7.124;2022-09-01T14:35:01;22.30;92.50
5631;DHT22;2837;50.990;7.124;2022-09-01T14:37:27;22.30;96.30
5631;DHT22;2837;50.990;7.124;2022-09-01T14:39:55;22.30;97.70
5631;DHT22;2837;50.990;7.124;2022-09-01T14:42:21;22.30;94.60
5631;DHT22;2837;50.990;7.124;2022-09-01T14:44:50;22.30;91.90
5631;DHT22;2837;50.990;7.124;2022-09-01T14:47:16;22.30;91.90
5631;DHT22;2837;50.990;7.124;2022-09-01T14:49:42;22.20;92.20
5631;DHT22;2837;50.990;7.124;2022-09-01T14:52:08;22.20;92.80
5631;DHT22;2837;50.990;7.124;2022-09-01T14:54:35;22.20;93.50
5631;DHT22;2837;50.990;7.124;2022-09-01T14:57:01;22.20;94.90
5631;DHT22;2837;50.990;7.124;2022-09-01T14:59:27;22.20;95.60
5631;DHT22;2837;50.990;7.124;2022-09-01T15:01:52;22.20;96.60
5631;DHT22;2837;50.990;7.124;2022-09-01T15:04:18;22.20;99.70
5631;DHT22;2837;50.990;7.124;2022-09-01T15:06:44;22.20;99.90
5631;DHT22;2837;50.990;7.124;2022-09-01T15:09:10;22.10;99.90
5631;DHT22;2837;50.990;7.124;2022-09-01T15:11:35;22.10;99.90
5631;DHT22;2837;50.990;7.124;2022-09-01T15:14:01;22.10;99.90
5631;DHT22;2837;50.990;7.124;2022-09-01T15:16:27;22.10;99.90
5631;DHT22;2837;50.990;7.124;2022-09-01T15:18:53;22.10;99.90
5631;DHT22;2837;50.990;7.124;2022-09-01T15:21:27;22.10;99.90
5631;DHT22;2837;50.990;7.124;2022-09-01T15:23:54;22.10;99.90
5631;DHT22;2837;50.990;7.124;2022-09-01T15:26:20;22.10;99.90
5631;DHT22;2837;50.990;7.124;2022-09-01T15:28:47;22.10;99.90
5631;DHT22;2837;50.990;7.124;2022-09-01T15:31:13;22.10;99.90
5631;DHT22;2837;50.990;7.124;2022-09-01T15:33:40;22.10;99.90
5631;DHT22;2837;50.990;7.124;2022-09-01T15:36:07;22.10;99.90
5631;DHT22;2837;50.990;7.124;2022-09-01T15:38:33;22.00;99.90
5631;DHT22;2837;50.990;7.124;2022-09-01T15:40:58;22.00;99.90
5631;DHT22;2837;50.990;7.124;2022-09-01T15:43:27;22.00;99.90
5631;DHT22;2837;50.990;7.124;2022-09-01T15:45:53;22.00;99.90
5631;DHT22;2837;50.990;7.124;2022-09-01T15:48:18;22.10;99.90
5631;DHT22;2837;50.990;7.124;2022-09-01T15:50:44;22.10;99.90
5631;DHT22;2837;50.990;7.124;2022-09-01T15:53:09;22.10;97.30
5631;DHT22;2837;50.990;7.124;2022-09-01T15:55:40;22.10;98.40
5631;DHT22;2837;50.990;7.124;2022-09-01T15:58:08;22.10;99.90
5631;DHT22;2837;50.990;7.124;2022-09-01T16:00:33;22.20;99.90
5631;DHT22;2837;50.990;7.124;2022-09-01T16:02:59;22.20;99.90
5631;DHT22;2837;50.990;7.124;2022-09-01T16:05:32;22.20;99.90
5631;DHT22;2837;50.990;7.124;2022-09-01T16:07:58;22.20;99.90
5631;DHT22;2837;50.990;7.124;2022-09-01T16:10:27;22.20;99.90
5631;DHT22;2837;50.990;7.124;2022-09-01T16:12:54;22.20;99.90
5631;DHT22;2837;50.990;7.124;2022-09-01T16:15:22;22.20;93.10
5631;DHT22;2837;50.990;7.124;2022-09-01T16:21:02;22.30;81.20
5631;DHT22;2837;50.990;7.124;2022-09-01T16:23:50;22.30;87.60
5631;DHT22;2837;50.990;7.124;2022-09-01T16:26:17;22.30;87.80
5631;DHT22;2837;50.990;7.124;2022-09-01T16:28:48;22.40;73.30
5631;DHT22;2837;50.990;7.124;2022-09-01T16:31:16;22.40;73.90
5631;DHT22;2837;50.990;7.124;2022-09-01T16:33:48;22.50;71.80
5631;DHT22;2837;50.990;7.124;2022-09-01T16:44:59;22.50;69.00
5631;DHT22;2837;50.990;7.124;2022-09-01T16:53:42;22.50;61.60
5631;DHT22;2837;50.990;7.124;2022-09-01T16:56:51;22.50;63.20
5631;DHT22;2837;50.990;7.124;2022-09-01T17:04:47;22.40;68.80
5631;DHT22;2837;50.990;7.124;2022-09-01T17:07:28;22.40;66.30
5631;DHT22;2837;50.990;7.124;2022-09-01T17:12:53;22.30;73.40
5631;DHT22;2837;50.990;7.124;2022-09-01T17:15:32;22.30;74.20
5631;DHT22;2837;50.990;7.124;2022-09-01T17:18:16;22.30;76.80
5631;DHT22;2837;50.990;7.124;2022-09-01T17:20:45;22.30;79.80
5631;DHT22;2837;50.990;7.124;2022-09-01T17:23:16;22.20;81.60
5631;DHT22;2837;50.990;7.124;2022-09-01T17:25:55;22.20;81.60
5631;DHT22;2837;50.990;7.124;2022-09-01T17:29:13;22.20;72.20
5631;DHT22;2837;50.990;7.124;2022-09-01T17:34:23;22.20;78.50
5631;DHT22;2837;50.990;7.124;2022-09-01T17:39:56;22.20;74.20
5631;DHT22;2837;50.990;7.124;2022-09-01T17:42:36;22.20;75.10
5631;DHT22;2837;50.990;7.124;2022-09-01T17:47:44;22.10;74.20
5631;DHT22;2837;50.990;7.124;2022-09-01T17:52:50;22.00;74.40
5631;DHT22;2837;50.990;7.124;2022-09-01T17:55:46;22.00;73.10
5631;DHT22;2837;50.990;7.124;2022-09-01T17:58:49;22.00;75.00
5631;DHT22;2837;50.990;7.124;2022-09-01T18:01:55;22.00;72.20
5631;DHT22;2837;50.990;7.124;2022-09-01T18:07:10;22.00;74.20
5631;DHT22;2837;50.990;7.124;2022-09-01T18:09:44;21.90;74.40
5631;DHT22;2837;50.990;7.124;2022-09-01T18:12:16;21.90;73.30
5631;DHT22;2837;50.990;7.124;2022-09-01T18:14:55;21.90;74.10
5631;DHT22;2837;50.990;7.124;2022-09-01T18:17:33;21.80;77.20
5631;DHT22;2837;50.990;7.124;2022-09-01T18:22:34;21.80;81.20
5631;DHT22;2837;50.990;7.124;2022-09-01T18:25:05;21.80;83.10
5631;DHT22;2837;50.990;7.124;2022-09-01T18:27:32;21.80;81.90
5631;DHT22;2837;50.990;7.124;2022-09-01T18:29:57;21.70;82.40
5631;DHT22;2837;50.990;7.124;2022-09-01T18:32:48;21.70;84.00
5631;DHT22;2837;50.990;7.124;2022-09-01T18:35:28;21.70;84.10
5631;DHT22;2837;50.990;7.124;2022-09-01T18:38:14;21.70;86.10
5631;DHT22;2837;50.990;7.124;2022-09-01T18:40:56;21.60;86.40
5631;DHT22;2837;50.990;7.124;2022-09-01T18:43:28;21.60;86.80
5631;DHT22;2837;50.990;7.124;2022-09-01T18:49:13;21.50;83.20
5631;DHT22;2837;50.990;7.124;2022-09-01T18:51:58;21.50;84.80
5631;DHT22;2837;50.990;7.124;2022-09-01T18:54:40;21.50;87.20
5631;DHT22;2837;50.990;7.124;2022-09-01T18:57:15;21.50;87.10
5631;DHT22;2837;50.990;7.124;2022-09-01T19:02:47;21.40;91.00
5631;DHT22;2837;50.990;7.124;2022-09-01T19:10:31;21.30;90.40
5631;DHT22;2837;50.990;7.124;2022-09-01T19:13:07;21.30;90.50
5631;DHT22;2837;50.990;7.124;2022-09-01T19:23:37;21.10;92.00
5631;DHT22;2837;50.990;7.124;2022-09-01T19:26:09;21.10;92.10
5631;DHT22;2837;50.990;7.124;2022-09-01T19:34:12;21.00;92.90
5631;DHT22;2837;50.990;7.124;2022-09-01T19:36:46;21.00;92.00
5631;DHT22;2837;50.990;7.124;2022-09-01T19:39:15;20.90;91.30
5631;DHT22;2837;50.990;7.124;2022-09-01T19:47:12;20.90;91.90
5631;DHT22;2837;50.990;7.124;2022-09-01T19:52:22;20.90;90.00
5631;DHT22;2837;50.990;7.124;2022-09-01T19:54:57;20.90;84.60
5631;DHT22;2837;50.990;7.124;2022-09-01T19:57:28;20.90;87.30
5631;DHT22;2837;50.990;7.124;2022-09-01T20:00:02;20.80;82.40
5631;DHT22;2837;50.990;7.124;2022-09-01T20:02:48;20.80;80.60
5631;DHT22;2837;50.990;7.124;2022-09-01T20:05:31;20.80;77.70
5631;DHT22;2837;50.990;7.124;2022-09-01T20:08:07;20.80;76.30
5631;DHT22;2837;50.990;7.124;2022-09-01T20:13:25;20.80;74.90
5631;DHT22;2837;50.990;7.124;2022-09-01T20:16:15;20.80;73.60
5631;DHT22;2837;50.990;7.124;2022-09-01T20:18:48;20.80;73.60
5631;DHT22;2837;50.990;7.124;2022-09-01T20:21:15;20.80;71.20
5631;DHT22;2837;50.990;7.124;2022-09-01T20:24:01;20.70;69.20
5631;DHT22;2837;50.990;7.124;2022-09-01T20:26:39;20.80;67.30
5631;DHT22;2837;50.990;7.124;2022-09-01T20:31:43;20.70;63.90
5631;DHT22;2837;50.990;7.124;2022-09-01T20:34:21;20.70;62.80
5631;DHT22;2837;50.990;7.124;2022-09-01T20:36:59;20.80;64.50
5631;DHT22;2837;50.990;7.124;2022-09-01T20:39:38;20.70;63.10
5631;DHT22;2837;50.990;7.124;2022-09-01T20:45:13;20.80;63.80
5631;DHT22;2837;50.990;7.124;2022-09-01T20:47:38;20.70;63.50
5631;DHT22;2837;50.990;7.124;2022-09-01T20:50:10;20.80;63.90
5631;DHT22;2837;50.990;7.124;2022-09-01T20:55:11;20.70;62.10
